createdAt,value
2023-05-10T00:03:01.462Z,2.63
2023-05-10T00:08:04.020Z,3.13
2023-05-10T00:13:05.848Z,3.00
2023-05-10T00:18:09.239Z,2.80
2023-05-10T00:23:11.539Z,2.63
2023-05-10T00:28:13.334Z,3.00
2023-05-10T00:33:16.455Z,2.73
2023-05-10T00:38:18.616Z,3.10
2023-05-10T00:43:21.170Z,3.30
2023-05-10T00:48:25.129Z,3.00
2023-05-10T00:53:28.180Z,3.20
2023-05-10T00:58:29.993Z,3.40
2023-05-10T01:03:33.374Z,3.10
2023-05-10T01:08:35.416Z,3.00
2023-05-10T01:13:40.048Z,3.03
2023-05-10T01:18:44.639Z,2.83
2023-05-10T01:24:28.128Z,2.93
2023-05-10T01:30:14.803Z,2.73
2023-05-10T01:35:26.814Z,3.03
2023-05-10T01:40:33.717Z,3.10
2023-05-10T01:45:46.301Z,3.00
2023-05-10T01:50:51.344Z,3.33
2023-05-10T01:55:56.485Z,3.30
2023-05-10T02:01:01.214Z,3.40
2023-05-10T02:06:06.123Z,3.30
2023-05-10T02:11:10.102Z,3.17
2023-05-10T02:16:13.668Z,3.03
2023-05-10T02:21:18.808Z,3.57
2023-05-10T02:26:22.776Z,3.23
2023-05-10T02:31:25.926Z,3.70
2023-05-10T02:36:31.092Z,3.10
2023-05-10T02:41:33.744Z,4.27
2023-05-10T02:46:36.453Z,3.80
2023-05-10T02:51:45.235Z,3.80
2023-05-10T02:56:51.884Z,3.20
2023-05-10T03:01:54.216Z,4.03
2023-05-10T03:06:57.927Z,3.60
2023-05-10T03:12:08.556Z,3.20
2023-05-10T03:17:16.514Z,3.37
2023-05-10T03:22:25.732Z,3.50
2023-05-10T03:27:29.336Z,3.27
2023-05-10T03:32:31.569Z,4.10
2023-05-10T03:37:35.285Z,3.50
2023-05-10T03:42:37.912Z,4.07
2023-05-10T03:47:39.995Z,3.50
2023-05-10T03:52:43.194Z,3.50
2023-05-10T03:57:45.275Z,3.90
2023-05-10T04:02:47.504Z,3.50
2023-05-10T04:07:51.027Z,4.50
2023-05-10T04:12:53.871Z,3.77
2023-05-10T04:17:55.710Z,3.27
2023-05-10T04:22:59.407Z,3.23
2023-05-10T04:28:01.507Z,3.60
2023-05-10T04:33:04.108Z,3.23
2023-05-10T04:38:07.311Z,2.87
2023-05-10T04:43:09.433Z,3.03
2023-05-10T04:48:11.238Z,2.73
2023-05-10T04:53:15.949Z,3.13
2023-05-10T04:58:18.027Z,2.73
2023-05-10T05:03:20.116Z,2.60
2023-05-10T05:08:23.837Z,3.03
2023-05-10T05:13:26.327Z,2.90
2023-05-10T05:18:28.421Z,2.27
2023-05-10T05:23:31.852Z,2.50
2023-05-10T05:28:34.316Z,2.70
2023-05-10T05:33:36.455Z,2.73
2023-05-10T05:38:39.816Z,2.20
2023-05-10T05:43:42.196Z,2.27
2023-05-10T05:48:43.949Z,2.30
2023-05-10T05:53:47.077Z,2.10
2023-05-10T05:58:48.905Z,1.97
2023-05-10T06:03:52.682Z,2.20
2023-05-10T06:08:57.015Z,2.00
2023-05-10T06:13:59.542Z,2.30
2023-05-10T06:19:01.695Z,2.10
2023-05-10T06:24:05.900Z,2.25
2023-05-10T06:29:08.003Z,1.85
2023-05-10T06:34:10.159Z,2.15
2023-05-10T06:39:14.029Z,2.07
2023-05-10T06:44:15.832Z,2.43
2023-05-10T06:49:18.059Z,2.20
2023-05-10T06:54:21.585Z,2.15
2023-05-10T06:59:23.629Z,2.10
2023-05-10T07:04:25.748Z,2.50
2023-05-10T07:09:29.349Z,1.88
2023-05-10T07:14:31.698Z,2.25
2023-05-10T07:19:33.731Z,2.00
2023-05-10T07:24:37.249Z,2.42
2023-05-10T07:29:39.451Z,2.50
2023-05-10T07:34:41.929Z,1.92
2023-05-10T07:39:45.450Z,1.90
2023-05-10T07:44:47.252Z,2.00
2023-05-10T07:49:49.041Z,1.80
2023-05-10T07:54:52.172Z,1.98
2023-05-10T07:59:53.962Z,2.20
2023-05-10T08:04:56.411Z,2.20
2023-05-10T08:09:59.760Z,1.75
2023-05-10T08:15:02.234Z,2.20
2023-05-10T08:20:05.073Z,2.55
2023-05-10T08:25:09.265Z,2.17
2023-05-10T08:30:11.439Z,2.10
2023-05-10T08:35:13.691Z,2.40
2023-05-10T08:40:17.205Z,2.67
2023-05-10T08:45:21.125Z,2.38
2023-05-10T08:50:24.481Z,1.80
2023-05-10T08:55:28.729Z,1.67
2023-05-10T09:00:31.774Z,1.60
2023-05-10T09:05:33.944Z,1.83
2023-05-10T09:10:39.658Z,2.03
2023-05-10T09:15:42.396Z,2.05
2023-05-10T09:20:44.859Z,1.83
2023-05-10T09:25:47.959Z,2.08
2023-05-10T09:30:55.058Z,1.90
2023-05-10T09:36:08.170Z,1.88
2023-05-10T09:41:18.579Z,1.42
2023-05-10T09:46:20.673Z,1.60
2023-05-10T09:51:23.629Z,1.70
2023-05-10T09:56:36.883Z,1.70
2023-05-10T10:01:39.492Z,1.52
2023-05-10T10:06:41.869Z,1.35
2023-05-10T10:11:45.289Z,1.77
2023-05-10T10:16:59.863Z,1.30
2023-05-10T10:22:09.006Z,1.58
2023-05-10T10:27:21.449Z,1.70
2023-05-10T10:32:29.398Z,1.75
2023-05-10T10:37:47.975Z,1.25
2023-05-10T10:42:51.127Z,1.70
2023-05-10T10:48:23.595Z,1.40
2023-05-10T10:53:28.320Z,1.50
2023-05-10T10:58:32.732Z,1.58
2023-05-10T11:03:34.885Z,1.67
2023-05-10T11:08:42.594Z,1.63
2023-05-10T11:13:50.870Z,1.67
2023-05-10T11:19:03.286Z,1.60
2023-05-10T11:24:14.902Z,2.08
2023-05-10T11:29:18.814Z,1.40
2023-05-10T11:34:28.398Z,1.50
2023-05-10T11:39:32.102Z,1.67
2023-05-10T11:44:35.736Z,1.60
2023-05-10T11:49:38.215Z,1.67
2023-05-10T11:54:46.919Z,1.42
2023-05-10T11:59:54.675Z,1.42
2023-05-10T12:04:57.726Z,1.50
2023-05-10T12:10:07.946Z,1.80
2023-05-10T12:15:19.486Z,1.55
2023-05-10T12:20:24.196Z,1.58
2023-05-10T12:25:32.271Z,1.38
2023-05-10T12:30:37.717Z,1.60
2023-05-10T12:35:47.630Z,1.35
2023-05-10T12:40:49.936Z,1.80
2023-05-10T12:45:53.649Z,1.73
2023-05-10T12:50:55.418Z,1.70
2023-05-10T12:55:57.736Z,1.33
2023-05-10T13:01:01.465Z,1.55
2023-05-10T13:06:04.109Z,1.52
2023-05-10T13:11:07.156Z,1.70
2023-05-10T13:16:10.759Z,1.52
2023-05-10T13:21:13.122Z,1.27
2023-05-10T13:26:15.230Z,1.70
2023-05-10T13:31:18.884Z,1.60
2023-05-10T13:36:21.093Z,1.42
2023-05-10T13:41:23.232Z,1.60
2023-05-10T13:46:26.841Z,1.35
2023-05-10T13:51:29.017Z,1.60
2023-05-10T13:56:30.786Z,1.48
2023-05-10T14:01:34.299Z,1.83
2023-05-10T14:06:36.442Z,1.60
2023-05-10T14:11:38.668Z,1.60
2023-05-10T14:16:44.829Z,1.55
2023-05-10T14:21:47.333Z,1.50
2023-05-10T14:26:49.606Z,1.45
2023-05-10T14:31:53.376Z,1.48
2023-05-10T14:36:55.660Z,2.20
2023-05-10T14:41:57.943Z,1.95
2023-05-10T14:47:01.430Z,1.23
2023-05-10T14:52:04.157Z,1.38
2023-05-10T14:57:06.296Z,1.67
2023-05-10T15:02:09.722Z,1.77
2023-05-10T15:07:12.459Z,1.75
2023-05-10T15:12:14.524Z,2.15
2023-05-10T15:17:18.472Z,2.47
2023-05-10T15:22:21.220Z,2.60
2023-05-10T15:27:23.822Z,2.90
2023-05-10T15:32:27.018Z,2.67
2023-05-10T15:37:29.695Z,2.60
2023-05-10T15:42:32.004Z,2.88
2023-05-10T15:47:35.555Z,2.60
2023-05-10T15:52:37.941Z,3.25
2023-05-10T15:57:40.469Z,3.03
2023-05-10T16:02:43.724Z,3.28
2023-05-10T16:07:45.497Z,2.60
2023-05-10T16:12:47.394Z,2.72
2023-05-10T16:17:50.852Z,2.90
2023-05-10T16:22:53.231Z,3.15
2023-05-10T16:27:55.595Z,2.70
2023-05-10T16:33:00.159Z,2.40
2023-05-10T16:38:02.154Z,2.80
2023-05-10T16:43:05.471Z,2.90
2023-05-10T16:48:08.988Z,2.53
2023-05-10T16:53:11.292Z,2.40
2023-05-10T16:58:13.514Z,2.57
2023-05-10T17:03:18.121Z,3.00
2023-05-10T17:08:20.449Z,2.57
2023-05-10T17:13:22.261Z,2.67
2023-05-10T17:18:25.798Z,2.20
2023-05-10T17:23:29.937Z,2.00
2023-05-10T17:28:32.765Z,2.33
2023-05-10T17:33:38.217Z,2.70
2023-05-10T17:38:40.250Z,2.60
2023-05-10T17:43:42.955Z,2.63
2023-05-10T17:48:46.595Z,2.17
2023-05-10T17:53:49.017Z,2.40
2023-05-10T17:58:51.368Z,2.17
2023-05-10T18:03:54.896Z,3.27
2023-05-10T18:08:56.614Z,2.77
2023-05-10T18:13:58.648Z,2.43
2023-05-10T18:19:02.147Z,2.57
2023-05-10T18:24:04.804Z,2.80
2023-05-10T18:29:06.700Z,3.00
2023-05-10T18:34:11.036Z,2.47
2023-05-10T18:39:13.279Z,2.60
2023-05-10T18:44:15.190Z,2.50
2023-05-10T18:49:18.674Z,2.70
2023-05-10T18:54:20.478Z,2.30
2023-05-10T18:59:23.431Z,2.53
2023-05-10T19:04:26.835Z,2.30
2023-05-10T19:09:29.212Z,2.40
2023-05-10T19:14:31.623Z,2.70
2023-05-10T19:19:37.742Z,2.60
2023-05-10T19:24:39.752Z,3.00
2023-05-10T19:29:42.218Z,3.30
2023-05-10T19:34:45.685Z,3.50
2023-05-10T19:39:48.007Z,3.30
2023-05-10T19:44:49.731Z,2.97
2023-05-10T19:49:52.937Z,2.70
2023-05-10T19:54:54.677Z,2.80
2023-05-10T19:59:56.702Z,3.10
2023-05-10T20:04:59.918Z,2.97
2023-05-10T20:10:02.152Z,2.80
2023-05-10T20:15:06.604Z,2.40
2023-05-10T20:20:11.615Z,2.63
2023-05-10T20:25:14.701Z,2.57
2023-05-10T20:30:17.104Z,2.83
2023-05-10T20:35:20.351Z,3.00
2023-05-10T20:40:22.675Z,2.43
2023-05-10T20:45:24.938Z,3.00
2023-05-10T20:50:28.757Z,3.10
2023-05-10T20:55:30.989Z,3.50
2023-05-10T21:00:33.092Z,3.83
2023-05-10T21:05:36.497Z,3.27
2023-05-10T21:10:38.274Z,3.20
2023-05-10T21:15:40.333Z,2.80
2023-05-10T21:20:43.638Z,3.17
2023-05-10T21:25:46.010Z,2.83
2023-05-10T21:30:48.220Z,2.90
2023-05-10T21:35:51.648Z,2.33
2023-05-10T21:40:53.791Z,3.30
2023-05-10T21:45:55.940Z,2.83
2023-05-10T21:50:59.986Z,2.97
2023-05-10T21:56:02.109Z,2.97
2023-05-10T22:01:04.325Z,2.97
2023-05-10T22:06:08.047Z,3.00
2023-05-10T22:11:10.662Z,3.03
2023-05-10T22:16:12.415Z,2.63
2023-05-10T22:21:15.953Z,2.80
2023-05-10T22:26:17.928Z,3.77
2023-05-10T22:31:20.072Z,3.23
2023-05-10T22:36:23.642Z,3.80
2023-05-10T22:41:25.708Z,3.60
2023-05-10T22:46:27.963Z,3.40
2023-05-10T22:51:31.605Z,3.33
2023-05-10T22:56:34.081Z,3.73
2023-05-10T23:01:36.371Z,3.50
2023-05-10T23:06:39.860Z,3.97
2023-05-10T23:11:41.848Z,3.53
2023-05-10T23:16:44.053Z,3.47
2023-05-10T23:21:47.714Z,3.80
2023-05-10T23:26:49.868Z,3.40
2023-05-10T23:31:52.241Z,3.10
2023-05-10T23:36:55.316Z,3.57
2023-05-10T23:41:57.659Z,3.57
2023-05-10T23:46:59.713Z,3.13
2023-05-10T23:52:02.849Z,4.03
2023-05-10T23:57:04.857Z,3.90
